This is the latest recevied weather packets stored in our database for station/object KB2SKP. If no packets are shown the sender has not sent any weather packets the latest 10 day(s).
| Time | Temp. | Humidity | Pressure | Rain* | Wind** | Luminosity | Snow |
|---|---|---|---|---|---|---|---|
| 1777779943 | 11.67° C | 53% | 1008.9 hPa | 0 mm | - | 0 W/m² | - |
| 1777779640 | 11.67° C | 53% | 1009.1 hPa | 0 mm | - | 0 W/m² | - |
| 1777779337 | 11.67° C | 53% | 1008.7 hPa | 0 mm | - | 0 W/m² | - |
| 1777779035 | 11.67° C | 55% | 1009.1 hPa | 0 mm | - | 0 W/m² | - |
| 1777778733 | 11.67° C | 55% | 1009.1 hPa | 0 mm | - | 0 W/m² | - |
| 1777778431 | 11.11° C | 60% | 1009.1 hPa | 0 mm | - | 0 W/m² | - |
| 1777778129 | 10.56° C | 65% | 1009.2 hPa | 0 mm | - | 0 W/m² | - |
| 1777777826 | 10.56° C | 65% | 1009.1 hPa | 0 mm | - | 0 W/m² | - |
| 1777777522 | 10.56° C | 70% | 1009.1 hPa | 0 mm | - | 0 W/m² | - |
| 1777777219 | 10.56° C | 71% | 1009.1 hPa | 0 mm | - | 0 W/m² | - |
| 1777776915 | 10.56° C | 71% | 1009.2 hPa | 0 mm | - | 0 W/m² | - |
| 1777776614 | 10.56° C | 67% | 1009.1 hPa | 0 mm | - | 0 W/m² | - |
| 1777776309 | 10.56° C | 69% | 1009.2 hPa | 0 mm | - | 0 W/m² | - |
| 1777776007 | 10° C | 69% | 1009 hPa | 0 mm | - | 0 W/m² | - |
| 1777775703 | 10° C | 73% | 1009 hPa | 0 mm | - | 0 W/m² | - |
| 1777775401 | 10° C | 74% | 1009.4 hPa | 0 mm | - | 0 W/m² | - |
| 1777775096 | 10° C | 71% | 1009.3 hPa | 0 mm | - | 0 W/m² | - |
| 1777770853 | 10° C | 77% | 1009.1 hPa | 0 mm | - | 0 W/m² | - |
| 1777769337 | 10.56° C | 75% | 1008.8 hPa | 0 mm | - | 0 W/m² | - |
| 1777767823 | 11.11° C | 70% | 1008.1 hPa | 0 mm | - | 0 W/m² | - |
| 1777767215 | 11.11° C | 67% | 1008 hPa | 0 mm | - | 0 W/m² | - |
| 1777766307 | 11.67° C | 68% | 1008.1 hPa | 0 mm | - | 1 W/m² | - |
| 1777765398 | 12.22° C | 64% | 1008.1 hPa | 0 mm | - | 3 W/m² | - |
| 1777764791 | 12.78° C | 59% | 1007.7 hPa | 0 mm | - | 5 W/m² | - |
| 1777764488 | 12.78° C | 55% | 1007.9 hPa | 0 mm | - | 6 W/m² | - |
* Rain latest hour (hover to see other rain measurements)
** Current wind speed in m/s (hover to see current wind gust speed)